createdAt,value
2023-05-08T00:00:06.619Z,5.40
2023-05-08T00:01:39.750Z,5.30
2023-05-08T00:03:12.862Z,5.20
2023-05-08T00:04:46.055Z,5.10
2023-05-08T00:06:19.168Z,5.00
2023-05-08T00:07:53.710Z,4.90
2023-05-08T00:09:26.844Z,4.80
2023-05-08T00:10:59.924Z,4.70
2023-05-08T00:12:32.994Z,4.70
2023-05-08T00:14:06.247Z,4.70
2023-05-08T00:15:39.390Z,4.70
2023-05-08T00:17:12.563Z,4.70
2023-05-08T00:18:45.916Z,4.60
2023-05-08T00:20:19.045Z,4.60
2023-05-08T00:21:52.413Z,4.70
2023-05-08T00:23:26.841Z,4.70
2023-05-08T00:24:59.888Z,4.70
2023-05-08T00:26:32.958Z,4.70
2023-05-08T00:28:06.129Z,4.70
2023-05-08T00:29:40.240Z,4.70
2023-05-08T00:31:12.313Z,4.80
2023-05-08T00:32:45.484Z,4.80
2023-05-08T00:34:17.766Z,4.80
2023-05-08T00:35:50.848Z,4.80
2023-05-08T00:37:22.901Z,4.80
2023-05-08T00:38:57.317Z,4.80
2023-05-08T00:40:29.486Z,4.80
2023-05-08T00:42:02.586Z,4.70
2023-05-08T00:43:37.514Z,4.70
2023-05-08T00:45:11.400Z,4.60
2023-05-08T00:46:45.650Z,4.50
2023-05-08T00:48:19.205Z,4.60
2023-05-08T00:49:52.372Z,4.70
2023-05-08T00:51:25.577Z,4.70
2023-05-08T00:52:59.819Z,4.70
2023-05-08T00:54:33.301Z,4.70
2023-05-08T00:56:07.793Z,4.80
2023-05-08T00:57:40.908Z,4.80
2023-05-08T00:59:17.496Z,4.90
2023-05-08T01:00:53.535Z,4.90
2023-05-08T01:02:27.057Z,4.80
2023-05-08T01:03:59.284Z,4.90
2023-05-08T01:05:32.890Z,4.90
2023-05-08T01:07:06.075Z,5.00
2023-05-08T01:08:38.429Z,5.00
2023-05-08T01:10:13.209Z,5.00
2023-05-08T01:11:51.917Z,5.00
2023-05-08T01:13:32.846Z,5.00
2023-05-08T01:15:10.774Z,5.00
2023-05-08T01:16:47.550Z,5.00
2023-05-08T01:18:24.236Z,5.00
2023-05-08T01:20:07.877Z,5.00
2023-05-08T01:21:51.571Z,4.90
2023-05-08T01:24:08.629Z,4.90
2023-05-08T01:26:22.083Z,4.80
2023-05-08T01:28:20.979Z,4.80
2023-05-08T01:30:41.529Z,4.80
2023-05-08T01:32:20.463Z,4.60
2023-05-08T01:34:02.119Z,4.80
2023-05-08T01:35:41.956Z,4.80
2023-05-08T01:37:21.232Z,4.80
2023-05-08T01:39:02.245Z,4.80
2023-05-08T01:40:41.564Z,4.80
2023-05-08T01:42:23.617Z,4.80
2023-05-08T01:44:07.594Z,4.80
2023-05-08T01:45:45.915Z,4.80
2023-05-08T01:47:25.095Z,4.80
2023-05-08T01:49:06.211Z,4.80
2023-05-08T01:50:45.900Z,4.80
2023-05-08T01:52:26.415Z,4.80
2023-05-08T01:55:41.237Z,4.80
2023-05-08T01:57:15.652Z,4.70
2023-05-08T01:58:50.424Z,4.70
2023-05-08T02:00:25.037Z,4.60
2023-05-08T02:02:01.889Z,4.60
2023-05-08T02:03:38.410Z,4.60
2023-05-08T02:05:13.661Z,4.50
2023-05-08T02:06:47.316Z,4.50
2023-05-08T02:08:21.353Z,4.50
2023-05-08T02:09:56.958Z,4.50
2023-05-08T02:11:31.848Z,4.60
2023-05-08T02:13:06.558Z,4.50
2023-05-08T02:14:41.491Z,4.50
2023-05-08T02:16:15.589Z,4.50
2023-05-08T02:17:51.702Z,4.50
2023-05-08T02:19:28.267Z,4.50
2023-05-08T02:21:02.778Z,4.50
2023-05-08T02:22:37.260Z,4.40
2023-05-08T02:24:10.919Z,4.30
2023-05-08T02:25:45.795Z,4.30
2023-05-08T02:27:19.501Z,4.20
2023-05-08T02:28:54.142Z,4.30
2023-05-08T02:30:28.704Z,4.30
2023-05-08T02:32:03.062Z,4.30
2023-05-08T02:33:37.046Z,4.20
2023-05-08T02:35:14.093Z,4.20
2023-05-08T02:36:48.261Z,4.20
2023-05-08T02:38:24.197Z,4.20
2023-05-08T02:39:59.019Z,4.20
2023-05-08T02:41:34.777Z,4.20
2023-05-08T02:43:08.452Z,4.30
2023-05-08T02:44:41.622Z,4.30
2023-05-08T02:46:17.130Z,4.20
2023-05-08T02:48:01.282Z,4.20
2023-05-08T02:49:43.924Z,4.20
2023-05-08T02:51:23.270Z,4.10
2023-05-08T02:53:07.696Z,4.10
2023-05-08T02:54:44.319Z,4.10
2023-05-08T02:56:27.138Z,4.10
2023-05-08T02:58:07.851Z,4.10
2023-05-08T02:59:46.460Z,4.10
2023-05-08T03:01:25.250Z,4.10
2023-05-08T03:03:02.455Z,4.10
2023-05-08T03:04:38.442Z,4.10
2023-05-08T03:06:15.923Z,4.00
2023-05-08T03:07:55.481Z,4.10
2023-05-08T03:09:39.899Z,4.10
2023-05-08T03:11:17.052Z,4.00
2023-05-08T03:12:54.323Z,4.40
2023-05-08T03:14:29.881Z,4.00
2023-05-08T03:16:05.516Z,4.00
2023-05-08T03:17:40.617Z,3.90
2023-05-08T03:19:21.836Z,4.00
2023-05-08T03:20:58.130Z,4.00
2023-05-08T03:22:33.637Z,3.90
2023-05-08T03:24:09.752Z,3.90
2023-05-08T03:25:44.844Z,3.90
2023-05-08T03:27:20.480Z,3.90
2023-05-08T03:28:53.917Z,3.90
2023-05-08T03:30:32.278Z,3.90
2023-05-08T03:32:12.891Z,3.80
2023-05-08T03:33:45.954Z,3.90
2023-05-08T03:35:19.600Z,3.90
2023-05-08T03:36:53.208Z,3.80
2023-05-08T03:38:26.806Z,3.80
2023-05-08T03:40:00.426Z,3.80
2023-05-08T03:41:33.566Z,3.90
2023-05-08T03:43:08.471Z,3.90
2023-05-08T03:44:40.866Z,3.90
2023-05-08T03:46:14.850Z,3.90
2023-05-08T03:47:48.153Z,4.00
2023-05-08T03:49:25.095Z,4.00
2023-05-08T03:50:59.947Z,4.00
2023-05-08T03:52:33.908Z,3.90
2023-05-08T03:54:07.106Z,4.00
2023-05-08T03:55:42.002Z,4.10
2023-05-08T03:57:16.062Z,4.10
2023-05-08T03:58:52.629Z,4.10
2023-05-08T04:00:37.788Z,4.20
2023-05-08T04:02:19.588Z,4.30
2023-05-08T04:03:57.501Z,4.30
2023-05-08T04:05:37.597Z,4.50
2023-05-08T04:07:15.777Z,4.60
2023-05-08T04:09:06.787Z,4.80
2023-05-08T04:10:46.612Z,4.90
2023-05-08T04:12:22.885Z,5.00
2023-05-08T04:14:03.191Z,5.10
2023-05-08T04:15:39.454Z,5.30
2023-05-08T04:17:16.754Z,5.40
2023-05-08T04:18:55.458Z,5.50
2023-05-08T04:20:29.456Z,5.60
2023-05-08T04:22:07.702Z,5.60
2023-05-08T04:23:45.315Z,5.70
2023-05-08T04:25:20.210Z,5.60
2023-05-08T04:26:56.617Z,5.70
2023-05-08T04:28:31.396Z,5.70
2023-05-08T04:30:06.204Z,5.80
2023-05-08T04:31:42.042Z,5.90
2023-05-08T04:33:18.244Z,6.00
2023-05-08T04:34:51.755Z,6.00
2023-05-08T04:36:26.040Z,6.10
2023-05-08T04:37:59.330Z,6.20
2023-05-08T04:39:32.464Z,6.20
2023-05-08T04:41:05.828Z,6.40
2023-05-08T04:42:42.978Z,6.50
2023-05-08T04:44:16.451Z,6.60
2023-05-08T04:45:49.614Z,6.60
2023-05-08T04:47:24.157Z,6.70
2023-05-08T04:48:57.663Z,6.80
2023-05-08T04:50:30.894Z,6.80
2023-05-08T04:52:03.198Z,6.90
2023-05-08T04:53:36.689Z,6.90
2023-05-08T04:55:11.269Z,7.00
2023-05-08T04:56:45.600Z,7.10
2023-05-08T04:58:20.432Z,7.20
2023-05-08T04:59:53.598Z,7.30
2023-05-08T05:01:26.904Z,7.30
2023-05-08T05:02:59.161Z,7.40
2023-05-08T05:04:33.067Z,7.50
2023-05-08T05:06:06.851Z,7.60
2023-05-08T05:07:39.986Z,7.60
2023-05-08T05:09:12.198Z,7.60
2023-05-08T05:10:45.647Z,7.60
2023-05-08T05:12:18.759Z,7.70
2023-05-08T05:13:53.309Z,7.70
2023-05-08T05:15:26.363Z,7.80
2023-05-08T05:16:59.753Z,7.80
2023-05-08T05:18:32.977Z,7.80
2023-05-08T05:20:08.658Z,7.80
2023-05-08T05:21:41.787Z,7.80
2023-05-08T05:23:14.997Z,7.90
2023-05-08T05:24:48.078Z,8.00
2023-05-08T05:26:21.723Z,8.10
2023-05-08T05:27:54.930Z,8.10
2023-05-08T05:29:30.284Z,8.00
2023-05-08T05:31:03.630Z,8.10
2023-05-08T05:32:37.093Z,8.00
2023-05-08T05:34:10.351Z,8.10
2023-05-08T05:35:42.499Z,8.20
2023-05-08T05:37:15.641Z,8.30
2023-05-08T05:38:48.771Z,8.50
2023-05-08T05:40:22.062Z,8.60
2023-05-08T05:41:55.163Z,9.00
2023-05-08T05:43:28.520Z,10.00
2023-05-08T05:45:03.671Z,11.90
2023-05-08T05:46:37.930Z,13.00
2023-05-08T05:48:11.394Z,13.60
2023-05-08T05:49:46.881Z,14.30
2023-05-08T05:51:20.128Z,15.00
2023-05-08T05:52:53.253Z,15.40
2023-05-08T05:54:26.734Z,15.70
2023-05-08T05:55:59.872Z,16.00
2023-05-08T05:57:32.998Z,16.40
2023-05-08T05:59:06.383Z,16.90
2023-05-08T06:00:40.924Z,17.50
2023-05-08T06:02:18.638Z,17.40
2023-05-08T06:03:52.321Z,17.60
2023-05-08T06:05:24.717Z,17.70
2023-05-08T06:06:58.062Z,17.70
2023-05-08T06:08:31.328Z,18.10
2023-05-08T06:10:04.961Z,18.80
2023-05-08T06:13:11.671Z,19.20
2023-05-08T06:14:44.832Z,18.90
2023-05-08T06:16:20.839Z,18.80
2023-05-08T06:17:57.174Z,18.30
2023-05-08T06:19:30.505Z,18.30
2023-05-08T06:21:03.683Z,17.50
2023-05-08T06:22:37.708Z,16.90
2023-05-08T06:24:11.757Z,16.60
2023-05-08T06:25:44.882Z,16.70
2023-05-08T06:27:17.963Z,17.80
2023-05-08T06:28:51.042Z,18.50
2023-05-08T06:30:24.533Z,18.60
2023-05-08T06:31:59.281Z,18.70
2023-05-08T06:33:32.453Z,19.20
2023-05-08T06:35:06.061Z,18.90
2023-05-08T06:36:39.293Z,18.60
2023-05-08T06:38:12.333Z,18.90
2023-05-08T06:39:45.467Z,18.60
2023-05-08T06:41:18.561Z,18.10
2023-05-08T06:42:51.846Z,18.00
2023-05-08T06:44:24.984Z,18.30
2023-05-08T06:45:58.201Z,18.50
2023-05-08T06:47:32.794Z,18.50
2023-05-08T06:49:06.108Z,18.70
2023-05-08T06:50:39.634Z,19.50
2023-05-08T06:52:12.770Z,19.60
2023-05-08T06:53:45.836Z,20.00
2023-05-08T06:55:19.210Z,19.80
2023-05-08T06:56:53.866Z,19.50
2023-05-08T07:00:00.525Z,20.70
2023-05-08T07:01:33.946Z,20.90
2023-05-08T07:03:08.456Z,21.10
2023-05-08T07:04:41.734Z,21.10
2023-05-08T07:06:14.825Z,20.90
2023-05-08T07:20:18.159Z,22.10
2023-05-08T07:21:51.401Z,21.30
2023-05-08T07:23:24.653Z,21.00
2023-05-08T07:24:57.864Z,20.30
2023-05-08T07:26:31.246Z,19.30
2023-05-08T07:28:04.397Z,19.10
2023-05-08T07:29:37.589Z,18.70
2023-05-08T07:31:10.701Z,18.50
2023-05-08T07:32:43.825Z,18.00
2023-05-08T07:34:18.300Z,18.00
2023-05-08T07:35:51.482Z,18.70
2023-05-08T07:37:24.553Z,19.00
2023-05-08T07:38:57.676Z,19.70
2023-05-08T07:40:30.822Z,19.90
2023-05-08T07:42:04.069Z,19.70
2023-05-08T07:43:37.148Z,19.60
2023-05-08T07:45:12.170Z,19.90
2023-05-08T07:46:45.578Z,19.80
2023-05-08T07:48:18.676Z,20.00
2023-05-08T07:49:54.256Z,20.20
2023-05-08T07:51:27.708Z,20.00
2023-05-08T07:53:00.837Z,19.30
2023-05-08T07:54:33.896Z,18.80
2023-05-08T07:56:07.523Z,18.80
2023-05-08T07:57:41.785Z,19.10
2023-05-08T07:59:14.844Z,19.30
2023-05-08T08:00:47.916Z,18.90
2023-05-08T08:02:21.026Z,18.80
2023-05-08T08:03:54.871Z,19.00
2023-05-08T08:05:29.585Z,18.80
2023-05-08T08:07:02.750Z,18.80
2023-05-08T08:08:35.793Z,18.60
2023-05-08T08:10:09.941Z,18.80
2023-05-08T08:11:42.998Z,18.60
2023-05-08T08:13:16.104Z,18.20
2023-05-08T08:14:49.310Z,18.00
2023-05-08T08:16:22.426Z,17.70
2023-05-08T08:17:55.895Z,17.80
2023-05-08T08:19:29.055Z,18.10
2023-05-08T08:21:06.561Z,18.30
2023-05-08T08:22:40.270Z,18.10
2023-05-08T08:24:13.581Z,18.30
2023-05-08T08:25:46.682Z,18.20
2023-05-08T08:27:19.918Z,17.90
2023-05-08T08:28:53.260Z,17.80
2023-05-08T08:30:26.318Z,17.70
2023-05-08T08:31:59.433Z,17.70
2023-05-08T08:33:32.546Z,18.00
2023-05-08T08:35:06.339Z,18.30
2023-05-08T08:36:41.192Z,18.30
2023-05-08T08:38:14.247Z,18.50
2023-05-08T08:39:48.347Z,18.70
2023-05-08T08:41:21.792Z,18.70
2023-05-08T08:42:56.006Z,18.90
2023-05-08T08:44:29.193Z,18.80
2023-05-08T08:46:04.629Z,18.60
2023-05-08T08:47:38.566Z,18.30
2023-05-08T08:49:18.870Z,18.00
2023-05-08T08:50:59.864Z,18.00
2023-05-08T08:52:42.122Z,18.00
2023-05-08T08:54:18.436Z,18.40
2023-05-08T08:55:55.514Z,18.40
2023-05-08T08:57:29.838Z,18.10
2023-05-08T08:59:03.953Z,17.90
2023-05-08T09:00:39.019Z,18.20
2023-05-08T09:02:17.698Z,18.70
2023-05-08T09:03:51.377Z,18.80
2023-05-08T09:05:26.446Z,19.10
2023-05-08T09:07:00.027Z,19.20
2023-05-08T09:08:35.764Z,19.10
2023-05-08T09:10:15.486Z,19.50
2023-05-08T09:11:49.351Z,19.60
2023-05-08T09:13:22.470Z,19.70
2023-05-08T09:14:55.827Z,19.80
2023-05-08T09:16:29.650Z,19.50
2023-05-08T09:18:03.487Z,19.40
2023-05-08T09:19:37.478Z,19.50
2023-05-08T09:21:10.925Z,19.60
2023-05-08T09:22:44.604Z,19.60
2023-05-08T09:24:19.088Z,19.40
2023-05-08T09:25:52.151Z,19.50
2023-05-08T09:27:27.040Z,19.90
2023-05-08T09:29:13.884Z,20.10
2023-05-08T09:30:52.211Z,20.40
2023-05-08T09:32:25.750Z,20.30
2023-05-08T09:33:58.928Z,20.10
2023-05-08T09:35:37.738Z,20.30
2023-05-08T09:37:14.502Z,20.40
2023-05-08T09:38:47.556Z,20.70
2023-05-08T09:40:23.626Z,20.80
2023-05-08T09:42:00.226Z,20.80
2023-05-08T09:43:33.345Z,21.20
2023-05-08T09:45:07.744Z,21.10
2023-05-08T09:46:40.858Z,20.60
2023-05-08T09:48:13.961Z,20.10
2023-05-08T09:49:58.625Z,19.90
2023-05-08T09:51:32.774Z,19.80
2023-05-08T09:53:05.944Z,20.00
2023-05-08T09:54:39.036Z,20.40
2023-05-08T09:56:13.859Z,20.40
2023-05-08T09:57:54.776Z,20.40
2023-05-08T09:59:30.416Z,20.40
2023-05-08T10:01:04.456Z,20.40
2023-05-08T10:02:38.635Z,20.60
2023-05-08T10:04:11.968Z,20.80
2023-05-08T10:05:47.317Z,20.60
2023-05-08T10:07:29.484Z,20.60
2023-05-08T10:09:12.914Z,20.60
2023-05-08T10:10:46.133Z,21.00
2023-05-08T10:12:22.735Z,21.20
2023-05-08T10:13:56.242Z,21.70
2023-05-08T10:15:31.869Z,21.70
2023-05-08T10:17:11.399Z,21.60
2023-05-08T10:18:49.403Z,21.50
2023-05-08T10:20:23.846Z,21.40
2023-05-08T10:21:59.136Z,21.00
2023-05-08T10:23:35.020Z,21.30
2023-05-08T10:25:17.048Z,21.60
2023-05-08T10:27:07.067Z,21.70
2023-05-08T10:28:45.906Z,21.30
2023-05-08T10:30:20.783Z,20.60
2023-05-08T10:31:57.726Z,20.40
2023-05-08T10:33:32.509Z,20.10
2023-05-08T10:35:09.464Z,20.00
2023-05-08T10:36:42.618Z,20.20
2023-05-08T10:38:17.728Z,20.70
2023-05-08T10:39:51.316Z,20.90
2023-05-08T10:41:24.935Z,20.90
2023-05-08T10:42:59.667Z,20.90
2023-05-08T10:44:34.509Z,21.20
2023-05-08T10:46:17.048Z,21.20
2023-05-08T10:48:00.630Z,21.90
2023-05-08T10:49:41.254Z,22.10
2023-05-08T10:51:20.234Z,22.50
2023-05-08T10:52:58.861Z,22.70
2023-05-08T10:54:43.358Z,22.40
2023-05-08T10:56:16.496Z,22.10
2023-05-08T10:58:07.404Z,22.00
2023-05-08T10:59:46.679Z,22.10
2023-05-08T11:01:20.479Z,22.00
2023-05-08T11:02:53.720Z,21.90
2023-05-08T11:04:30.045Z,21.70
2023-05-08T11:06:03.516Z,21.60
2023-05-08T11:07:54.642Z,21.60
2023-05-08T11:09:30.279Z,21.60
2023-05-08T11:11:09.061Z,21.70
2023-05-08T11:12:51.332Z,22.10
2023-05-08T11:14:25.190Z,22.60
2023-05-08T11:15:59.686Z,22.70
2023-05-08T11:17:33.270Z,23.00
2023-05-08T11:19:18.137Z,22.80
2023-05-08T11:20:58.083Z,22.30
2023-05-08T11:22:32.870Z,22.80
2023-05-08T11:24:11.635Z,22.70
2023-05-08T11:25:46.026Z,22.60
2023-05-08T11:27:19.259Z,22.70
2023-05-08T11:28:58.782Z,22.40
2023-05-08T11:30:39.520Z,22.20
2023-05-08T11:32:14.204Z,22.20
2023-05-08T11:33:47.370Z,22.00
2023-05-08T11:35:41.412Z,22.20
2023-05-08T11:37:19.726Z,22.50
2023-05-08T11:39:08.699Z,22.90
2023-05-08T11:40:56.456Z,23.40
2023-05-08T11:42:36.193Z,23.60
2023-05-08T11:44:20.413Z,23.50
2023-05-08T11:45:52.957Z,23.10
2023-05-08T11:47:36.788Z,23.00
2023-05-08T11:49:15.519Z,23.10
2023-05-08T11:50:48.936Z,23.30
2023-05-08T11:52:21.997Z,23.20
2023-05-08T11:53:55.158Z,23.30
2023-05-08T11:55:28.295Z,23.60
2023-05-08T11:57:01.819Z,23.70
2023-05-08T11:58:34.028Z,23.60
2023-05-08T12:00:07.964Z,24.00
2023-05-08T12:01:48.520Z,23.70
2023-05-08T12:03:31.231Z,23.40
2023-05-08T12:05:04.733Z,23.20
2023-05-08T12:06:40.899Z,23.20
2023-05-08T12:08:15.286Z,23.20
2023-05-08T12:09:48.612Z,23.30
2023-05-08T12:11:24.721Z,23.30
2023-05-08T12:12:57.891Z,23.00
2023-05-08T12:14:31.185Z,22.60
2023-05-08T12:16:04.298Z,22.40
2023-05-08T12:17:38.035Z,22.30
2023-05-08T12:19:14.224Z,21.80
2023-05-08T12:20:47.908Z,21.50
2023-05-08T12:22:21.436Z,21.20
2023-05-08T12:23:56.015Z,21.00
2023-05-08T12:25:29.212Z,20.90
2023-05-08T12:27:02.580Z,21.10
2023-05-08T12:28:35.675Z,21.60
2023-05-08T12:30:10.221Z,22.10
2023-05-08T12:31:43.480Z,22.60
2023-05-08T12:33:17.140Z,22.90
2023-05-08T12:34:52.741Z,23.10
2023-05-08T12:36:27.184Z,23.00
2023-05-08T12:38:03.362Z,23.10
2023-05-08T12:39:38.268Z,23.10
2023-05-08T12:41:11.344Z,23.00
2023-05-08T12:42:45.545Z,23.20
2023-05-08T12:44:20.398Z,23.30
2023-05-08T12:45:53.651Z,23.10
2023-05-08T12:47:26.984Z,23.10
2023-05-08T12:49:04.969Z,23.10
2023-05-08T12:50:40.617Z,22.90
2023-05-08T12:52:14.941Z,23.20
2023-05-08T12:53:48.175Z,23.00
2023-05-08T12:55:26.370Z,23.00
2023-05-08T12:56:59.574Z,22.80
2023-05-08T12:58:34.005Z,23.10
2023-05-08T13:00:08.586Z,23.20
2023-05-08T13:01:41.659Z,23.40
2023-05-08T13:03:22.272Z,23.90
2023-05-08T13:04:56.706Z,23.70
2023-05-08T13:06:31.843Z,23.00
2023-05-08T13:08:06.703Z,22.80
2023-05-08T13:09:40.101Z,22.70
2023-05-08T13:11:13.240Z,22.80
2023-05-08T13:12:46.663Z,23.00
2023-05-08T13:14:20.010Z,23.40
2023-05-08T13:15:54.802Z,23.60
2023-05-08T13:17:27.952Z,23.70
2023-05-08T13:19:01.145Z,23.50
2023-05-08T13:20:34.699Z,24.00
2023-05-08T13:22:10.560Z,24.20
2023-05-08T13:23:44.064Z,24.20
2023-05-08T13:25:17.264Z,24.10
2023-05-08T13:26:50.420Z,23.90
2023-05-08T13:28:23.470Z,23.40
2023-05-08T13:29:56.627Z,23.50
2023-05-08T13:31:29.788Z,23.60
2023-05-08T13:33:03.156Z,23.60
2023-05-08T13:34:39.457Z,23.50
2023-05-08T13:36:17.276Z,23.30
2023-05-08T13:37:51.932Z,23.30
2023-05-08T13:39:24.978Z,23.40
2023-05-08T13:40:58.237Z,23.60
2023-05-08T13:42:31.318Z,23.70
2023-05-08T13:44:04.420Z,23.50
2023-05-08T13:45:37.973Z,23.40
2023-05-08T13:47:11.419Z,23.30
2023-05-08T13:48:44.460Z,23.40
2023-05-08T13:50:19.449Z,23.10
2023-05-08T13:51:56.978Z,23.00
2023-05-08T13:53:32.019Z,22.80
2023-05-08T13:55:06.575Z,22.60
2023-05-08T13:56:39.932Z,22.50
2023-05-08T13:58:13.240Z,22.80
2023-05-08T13:59:46.369Z,23.00
2023-05-08T14:01:26.304Z,23.20
2023-05-08T14:03:00.188Z,23.60
2023-05-08T14:04:33.382Z,23.60
2023-05-08T14:06:07.472Z,23.10
2023-05-08T14:07:40.636Z,23.20
2023-05-08T14:09:15.191Z,23.10
2023-05-08T14:10:48.309Z,22.80
2023-05-08T14:12:21.477Z,22.70
2023-05-08T14:13:54.702Z,22.50
2023-05-08T14:15:36.400Z,22.40
2023-05-08T14:17:10.950Z,22.20
2023-05-08T14:18:44.431Z,22.10
2023-05-08T14:20:17.567Z,22.10
2023-05-08T14:21:51.218Z,22.10
2023-05-08T14:23:24.335Z,21.90
2023-05-08T14:24:58.743Z,22.10
2023-05-08T14:26:31.923Z,22.20
2023-05-08T14:28:05.594Z,22.20
2023-05-08T14:29:38.678Z,22.40
2023-05-08T14:31:12.044Z,22.40
2023-05-08T14:32:45.228Z,22.20
2023-05-08T14:34:18.357Z,22.20
2023-05-08T14:35:51.435Z,22.00
2023-05-08T14:37:24.492Z,21.90
2023-05-08T14:38:57.653Z,21.90
2023-05-08T14:40:32.155Z,21.70
2023-05-08T14:42:22.130Z,21.80
2023-05-08T14:43:56.342Z,21.70
2023-05-08T14:45:29.529Z,21.40
2023-05-08T14:47:02.712Z,21.40
2023-05-08T14:48:35.872Z,21.30
2023-05-08T14:50:09.653Z,21.30
2023-05-08T14:51:42.767Z,21.10
2023-05-08T14:53:16.011Z,20.90
2023-05-08T14:54:52.987Z,21.10
2023-05-08T14:56:30.214Z,21.20
2023-05-08T14:58:05.314Z,21.30
2023-05-08T14:59:43.540Z,20.90
2023-05-08T15:01:22.494Z,21.10
2023-05-08T15:02:55.654Z,21.10
2023-05-08T15:04:28.834Z,21.20
2023-05-08T15:06:02.137Z,21.00
2023-05-08T15:07:35.763Z,21.10
2023-05-08T15:09:10.229Z,21.00
2023-05-08T15:10:43.457Z,20.90
2023-05-08T15:12:18.039Z,20.60
2023-05-08T15:13:51.111Z,20.70
2023-05-08T15:15:24.408Z,20.70
2023-05-08T15:16:57.537Z,20.30
2023-05-08T15:18:30.643Z,20.00
2023-05-08T15:20:03.815Z,19.80
2023-05-08T15:21:36.927Z,19.70
2023-05-08T15:23:10.032Z,19.60
2023-05-08T15:24:43.144Z,19.70
2023-05-08T15:26:16.223Z,19.60
2023-05-08T15:27:52.788Z,19.70
2023-05-08T15:29:26.743Z,19.70
2023-05-08T15:30:59.829Z,19.70
2023-05-08T15:32:32.953Z,19.70
2023-05-08T15:34:06.197Z,19.70
2023-05-08T15:35:39.425Z,19.90
2023-05-08T15:37:12.484Z,19.80
2023-05-08T15:38:45.570Z,19.60
2023-05-08T15:40:18.731Z,19.50
2023-05-08T15:41:52.017Z,19.50
2023-05-08T15:43:26.824Z,19.50
2023-05-08T15:45:00.160Z,19.40
2023-05-08T15:46:33.264Z,19.30
2023-05-08T15:48:06.691Z,19.30
2023-05-08T15:49:39.892Z,19.30
2023-05-08T15:51:12.987Z,19.40
2023-05-08T15:52:46.051Z,19.40
2023-05-08T15:54:19.187Z,19.40
2023-05-08T15:55:52.301Z,19.40
2023-05-08T15:57:26.980Z,19.40
2023-05-08T15:59:01.433Z,19.40
2023-05-08T16:00:44.076Z,19.40
2023-05-08T16:02:18.527Z,19.40
2023-05-08T16:03:51.744Z,19.30
2023-05-08T16:05:24.835Z,19.30
2023-05-08T16:06:59.390Z,19.20
2023-05-08T16:08:32.434Z,19.20
2023-05-08T16:10:07.465Z,19.10
2023-05-08T16:11:40.842Z,19.10
2023-05-08T16:13:13.950Z,19.00
2023-05-08T16:14:48.441Z,19.00
2023-05-08T16:16:21.587Z,19.00
2023-05-08T16:17:54.840Z,19.00
2023-05-08T16:19:27.927Z,18.90
2023-05-08T16:21:01.105Z,18.80
2023-05-08T16:22:34.163Z,18.80
2023-05-08T16:24:07.782Z,18.70
2023-05-08T16:25:40.842Z,18.50
2023-05-08T16:27:14.063Z,18.50
2023-05-08T16:28:47.114Z,18.50
2023-05-08T16:30:21.809Z,18.40
2023-05-08T16:31:55.007Z,18.40
2023-05-08T16:33:28.120Z,18.40
2023-05-08T16:35:01.423Z,18.30
2023-05-08T16:36:34.513Z,18.30
2023-05-08T16:38:07.647Z,18.20
2023-05-08T16:39:40.829Z,18.10
2023-05-08T16:41:14.039Z,18.00
2023-05-08T16:42:47.200Z,18.10
2023-05-08T16:44:20.296Z,18.10
2023-05-08T16:45:55.492Z,18.10
2023-05-08T16:47:29.981Z,18.00
2023-05-08T16:49:03.069Z,17.90
2023-05-08T16:50:36.236Z,17.90
2023-05-08T16:52:09.288Z,17.80
2023-05-08T16:53:42.403Z,17.80
2023-05-08T16:55:15.923Z,17.80
2023-05-08T16:56:49.443Z,17.80
2023-05-08T16:58:22.961Z,17.80
2023-05-08T17:04:39.794Z,17.40
2023-05-08T17:06:13.036Z,17.40
2023-05-08T17:10:54.735Z,17.20
2023-05-08T17:12:27.834Z,17.20
2023-05-08T17:14:00.986Z,17.10
2023-05-08T17:15:34.298Z,17.10
2023-05-08T17:17:09.126Z,17.00
2023-05-08T17:18:42.193Z,17.00
2023-05-08T17:20:15.862Z,17.00
2023-05-08T17:21:49.266Z,17.00
2023-05-08T17:23:22.352Z,16.90
2023-05-08T17:24:55.495Z,16.80
2023-05-08T17:26:28.715Z,16.80
2023-05-08T17:28:02.045Z,16.80
2023-05-08T17:29:35.612Z,16.70
2023-05-08T17:31:09.569Z,16.70
2023-05-08T17:32:44.183Z,16.70
2023-05-08T17:34:17.437Z,16.70
2023-05-08T17:35:50.624Z,16.70
2023-05-08T17:38:57.954Z,16.50
2023-05-08T17:42:05.006Z,16.30
2023-05-08T17:43:38.619Z,16.40
2023-05-08T17:45:12.434Z,16.30
2023-05-08T17:46:45.644Z,16.30
2023-05-08T17:48:20.193Z,16.20
2023-05-08T17:49:53.394Z,16.20
2023-05-08T17:51:26.529Z,16.10
2023-05-08T17:52:59.725Z,16.00
2023-05-08T17:54:32.878Z,16.00
2023-05-08T17:56:06.312Z,15.90
2023-05-08T17:57:39.379Z,15.90
2023-05-08T17:59:12.536Z,15.80
2023-05-08T18:00:45.665Z,15.70
2023-05-08T18:02:19.251Z,15.70
2023-05-08T18:03:54.145Z,15.60
2023-05-08T18:05:27.233Z,15.60
2023-05-08T18:07:01.503Z,15.60
2023-05-08T18:08:35.156Z,15.50
2023-05-08T18:10:09.120Z,15.40
2023-05-08T18:11:42.452Z,15.40
2023-05-08T18:13:15.575Z,15.40
2023-05-08T18:14:48.834Z,15.30
2023-05-08T18:16:23.182Z,15.30
2023-05-08T18:17:56.472Z,15.20
2023-05-08T18:19:30.936Z,15.10
2023-05-08T18:21:04.051Z,15.00
2023-05-08T18:22:37.436Z,15.00
2023-05-08T18:24:10.516Z,14.90
2023-05-08T18:25:43.818Z,14.90
2023-05-08T18:27:17.080Z,14.80
2023-05-08T18:28:50.221Z,14.80
2023-05-08T18:30:23.388Z,14.80
2023-05-08T18:31:56.517Z,14.70
2023-05-08T18:35:05.069Z,14.60
2023-05-08T18:36:38.184Z,14.50
2023-05-08T18:38:11.411Z,14.50
2023-05-08T18:39:44.501Z,14.50
2023-05-08T18:41:17.656Z,14.40
2023-05-08T18:42:50.709Z,14.30
2023-05-08T18:44:23.852Z,14.30
2023-05-08T18:45:57.734Z,14.30
2023-05-08T18:47:30.924Z,14.30
2023-05-08T18:49:04.260Z,14.20
2023-05-08T18:50:38.922Z,14.10
2023-05-08T18:52:12.130Z,14.10
2023-05-08T18:58:27.558Z,13.90
2023-05-08T19:00:00.611Z,13.90
2023-05-08T19:01:33.760Z,13.90
2023-05-08T19:03:07.039Z,13.90
2023-05-08T19:04:41.103Z,13.80
2023-05-08T19:06:15.586Z,13.70
2023-05-08T19:07:48.722Z,13.70
2023-05-08T19:09:23.038Z,13.70
2023-05-08T19:10:56.284Z,13.60
2023-05-08T19:12:29.429Z,13.60
2023-05-08T19:14:02.520Z,13.50
2023-05-08T19:15:35.884Z,13.40
2023-05-08T19:17:09.084Z,13.30
2023-05-08T19:18:42.211Z,13.20
2023-05-08T19:20:15.796Z,13.20
2023-05-08T19:21:50.468Z,13.20
2023-05-08T19:23:23.584Z,13.20
2023-05-08T19:24:56.725Z,13.20
2023-05-08T19:26:29.775Z,13.10
2023-05-08T19:28:04.057Z,13.10
2023-05-08T19:29:37.140Z,13.10
2023-05-08T19:31:10.323Z,13.10
2023-05-08T19:32:43.756Z,13.00
2023-05-08T19:34:17.089Z,12.90
2023-05-08T19:35:50.228Z,12.90
2023-05-08T19:37:24.941Z,12.80
2023-05-08T19:38:58.045Z,12.70
2023-05-08T19:49:58.208Z,12.10
2023-05-08T19:54:39.771Z,12.00
2023-05-08T19:56:12.901Z,12.00
2023-05-08T19:57:46.197Z,12.00
2023-05-08T19:59:19.296Z,11.70
2023-05-08T20:00:52.472Z,11.60
2023-05-08T20:52:49.785Z,8.30
2023-05-08T20:54:22.892Z,8.30
2023-05-08T20:56:02.749Z,8.20
2023-05-08T20:57:35.847Z,8.20
2023-05-08T20:59:08.919Z,8.30
2023-05-08T21:00:42.007Z,8.20
2023-05-08T21:02:15.346Z,8.20
2023-05-08T21:03:48.488Z,8.20
2023-05-08T21:05:21.565Z,8.20
2023-05-08T21:06:54.631Z,8.20
2023-05-08T21:08:27.753Z,8.20
2023-05-08T21:10:00.943Z,8.40
2023-05-08T21:11:35.422Z,8.30
2023-05-08T21:13:08.491Z,8.30
2023-05-08T21:14:43.916Z,8.20
2023-05-08T21:16:17.071Z,8.10
2023-05-08T21:17:51.424Z,8.00
2023-05-08T21:19:24.537Z,7.90
2023-05-08T21:20:57.626Z,7.80
2023-05-08T21:22:30.694Z,7.70
2023-05-08T21:27:28.887Z,7.40
2023-05-08T21:29:04.192Z,7.40
2023-05-08T21:30:37.276Z,7.30
2023-05-08T21:32:10.557Z,7.30
2023-05-08T21:33:43.683Z,7.20
2023-05-08T21:35:16.198Z,7.10
2023-05-08T21:36:49.642Z,7.10
2023-05-08T21:38:22.702Z,7.00
2023-05-08T21:39:55.848Z,7.00
2023-05-08T22:08:10.385Z,5.80
2023-05-08T22:14:30.277Z,5.60
2023-05-08T22:19:14.534Z,5.50
2023-05-08T22:20:47.616Z,5.50
2023-05-08T22:22:20.678Z,5.60
2023-05-08T22:23:53.782Z,5.50
2023-05-08T22:25:27.187Z,5.50
2023-05-08T22:27:00.210Z,5.50
2023-05-08T22:28:33.391Z,5.40
2023-05-08T22:30:09.051Z,5.40
2023-05-08T22:31:42.160Z,5.40
2023-05-08T22:33:15.271Z,5.30
2023-05-08T22:34:49.739Z,5.30
2023-05-08T22:36:23.941Z,5.30
2023-05-08T22:37:57.968Z,5.30
2023-05-08T22:39:31.095Z,5.20
2023-05-08T22:41:05.780Z,5.10
2023-05-08T22:42:38.972Z,5.10
2023-05-08T22:44:12.414Z,5.10
2023-05-08T22:45:46.928Z,5.20
2023-05-08T22:47:20.156Z,5.20
2023-05-08T22:48:53.491Z,5.40
2023-05-08T22:50:26.611Z,5.50
2023-05-08T22:51:58.775Z,5.50